Japan Airlines Virtual Airport Information Service

Shanghai Hongqiao International Airport

ICAO: ZSSS Country: China
Latitude: 31.1979 Longitude: 121.336
Latest Arrival : CES5312 (ZGGG-ZSSS) Latest Departure : CES5105 (ZSSS-ZBAA)


WX CaptureLIVE
Data provided by noaa.gov | Fetched at 14:22:42

METAR : ZSSS 231400Z 03003MPS 9999 FEW015 BKN040 18/15 Q1014 NOSIG

TAF : ZSSS 230910Z 2312/2412 06004MPS 5000 BR BKN015 TX22/2406Z TN18/2321Z BECMG 2314/2316 10004MPS BKN006 BECMG 2402/2404 BKN015


Runway Data for ZSSS
Data provided by openaviationdata.com

Runway ID Mag Var Hdg Length Elevation Surface ILS Freq ILS Id ILS Slope
18 -5 181° 11178 ft 10 ft Asphalt 109.1 IPK 3
36 -5 11178 ft 10 ft Asphalt 110.3 IWB 3

Shanghai Hongqiao International Airport, China
Use only for reference purposes



Not for navigational purposes.